sensor_id;sensor_type;location;lat;lon;timestamp;P1;durP1;ratioP1;P2;durP2;ratioP2
65275;SDS011;51875;49.994;14.052;2022-10-31T00:00:01;88.65;;;14.90;;
65275;SDS011;51875;49.994;14.052;2022-10-31T00:01:20;40.88;;;11.93;;
65275;SDS011;51875;49.994;14.052;2022-10-31T00:02:35;69.00;;;14.15;;
65275;SDS011;51875;49.994;14.052;2022-10-31T00:03:52;58.85;;;12.80;;
65275;SDS011;51875;49.994;14.052;2022-10-31T00:05:08;50.38;;;12.20;;
65275;SDS011;51875;49.994;14.052;2022-10-31T00:06:26;63.88;;;12.70;;
65275;SDS011;51875;49.994;14.052;2022-10-31T00:07:42;33.92;;;11.32;;
65275;SDS011;51875;49.994;14.052;2022-10-31T00:09:01;26.83;;;11.52;;
65275;SDS011;51875;49.994;14.052;2022-10-31T00:10:18;29.20;;;11.70;;
65275;SDS011;51875;49.994;14.052;2022-10-31T00:11:33;31.02;;;11.40;;
65275;SDS011;51875;49.994;14.052;2022-10-31T00:12:49;27.60;;;10.27;;
65275;SDS011;51875;49.994;14.052;2022-10-31T00:14:06;37.22;;;10.68;;
65275;SDS011;51875;49.994;14.052;2022-10-31T00:15:22;50.95;;;12.07;;
65275;SDS011;51875;49.994;14.052;2022-10-31T00:16:37;44.65;;;13.27;;
65275;SDS011;51875;49.994;14.052;2022-10-31T00:17:53;45.20;;;13.32;;
65275;SDS011;51875;49.994;14.052;2022-10-31T00:19:09;43.03;;;11.63;;
65275;SDS011;51875;49.994;14.052;2022-10-31T00:20:24;52.65;;;12.63;;
65275;SDS011;51875;49.994;14.052;2022-10-31T00:21:40;36.55;;;13.05;;
65275;SDS011;51875;49.994;14.052;2022-10-31T00:22:59;34.72;;;11.88;;
65275;SDS011;51875;49.994;14.052;2022-10-31T00:24:15;28.52;;;11.63;;
65275;SDS011;51875;49.994;14.052;2022-10-31T00:25:34;34.67;;;11.75;;
65275;SDS011;51875;49.994;14.052;2022-10-31T00:26:51;47.80;;;12.15;;
65275;SDS011;51875;49.994;14.052;2022-10-31T00:28:08;31.50;;;12.60;;
65275;SDS011;51875;49.994;14.052;2022-10-31T00:29:26;67.53;;;13.75;;
65275;SDS011;51875;49.994;14.052;2022-10-31T00:30:42;62.10;;;14.48;;
65275;SDS011;51875;49.994;14.052;2022-10-31T00:31:57;33.88;;;12.40;;
65275;SDS011;51875;49.994;14.052;2022-10-31T00:33:13;24.92;;;11.05;;
65275;SDS011;51875;49.994;14.052;2022-10-31T00:34:29;55.35;;;12.65;;
65275;SDS011;51875;49.994;14.052;2022-10-31T00:35:49;47.50;;;12.57;;
65275;SDS011;51875;49.994;14.052;2022-10-31T00:37:05;21.20;;;11.55;;
65275;SDS011;51875;49.994;14.052;2022-10-31T00:38:21;20.30;;;11.00;;
65275;SDS011;51875;49.994;14.052;2022-10-31T00:39:37;19.88;;;11.27;;
65275;SDS011;51875;49.994;14.052;2022-10-31T00:40:52;24.38;;;11.10;;
65275;SDS011;51875;49.994;14.052;2022-10-31T00:42:08;24.15;;;11.38;;
65275;SDS011;51875;49.994;14.052;2022-10-31T00:43:24;41.67;;;12.85;;
65275;SDS011;51875;49.994;14.052;2022-10-31T00:44:39;47.67;;;11.90;;
65275;SDS011;51875;49.994;14.052;2022-10-31T00:45:55;36.53;;;11.60;;
65275;SDS011;51875;49.994;14.052;2022-10-31T00:47:10;44.85;;;11.95;;
65275;SDS011;51875;49.994;14.052;2022-10-31T00:48:27;40.97;;;11.90;;
65275;SDS011;51875;49.994;14.052;2022-10-31T00:49:43;48.58;;;11.75;;
65275;SDS011;51875;49.994;14.052;2022-10-31T00:50:58;25.80;;;11.75;;
65275;SDS011;51875;49.994;14.052;2022-10-31T00:52:14;35.78;;;11.90;;
65275;SDS011;51875;49.994;14.052;2022-10-31T00:53:30;31.88;;;10.98;;
65275;SDS011;51875;49.994;14.052;2022-10-31T00:54:45;23.88;;;11.10;;
65275;SDS011;51875;49.994;14.052;2022-10-31T00:56:01;32.65;;;10.95;;
65275;SDS011;51875;49.994;14.052;2022-10-31T00:57:17;30.45;;;10.93;;
65275;SDS011;51875;49.994;14.052;2022-10-31T00:58:32;37.63;;;12.25;;
65275;SDS011;51875;49.994;14.052;2022-10-31T00:59:48;42.78;;;11.40;;
65275;SDS011;51875;49.994;14.052;2022-10-31T01:01:04;49.97;;;10.73;;
65275;SDS011;51875;49.994;14.052;2022-10-31T01:02:19;34.90;;;10.38;;
65275;SDS011;51875;49.994;14.052;2022-10-31T01:03:35;43.58;;;10.80;;
65275;SDS011;51875;49.994;14.052;2022-10-31T01:04:50;34.63;;;9.98;;
65275;SDS011;51875;49.994;14.052;2022-10-31T01:06:07;29.73;;;10.95;;
65275;SDS011;51875;49.994;14.052;2022-10-31T01:07:24;27.50;;;9.73;;
65275;SDS011;51875;49.994;14.052;2022-10-31T01:08:40;39.55;;;10.90;;
65275;SDS011;51875;49.994;14.052;2022-10-31T01:09:56;33.88;;;11.10;;
65275;SDS011;51875;49.994;14.052;2022-10-31T01:11:12;47.72;;;11.65;;
65275;SDS011;51875;49.994;14.052;2022-10-31T01:12:30;34.00;;;10.35;;
65275;SDS011;51875;49.994;14.052;2022-10-31T01:13:51;39.97;;;10.52;;
65275;SDS011;51875;49.994;14.052;2022-10-31T01:15:08;64.82;;;11.27;;
65275;SDS011;51875;49.994;14.052;2022-10-31T01:16:26;44.80;;;10.85;;
65275;SDS011;51875;49.994;14.052;2022-10-31T01:17:42;25.63;;;10.52;;
65275;SDS011;51875;49.994;14.052;2022-10-31T01:18:58;38.05;;;11.35;;
65275;SDS011;51875;49.994;14.052;2022-10-31T01:20:14;52.08;;;12.55;;
65275;SDS011;51875;49.994;14.052;2022-10-31T01:21:31;50.35;;;10.85;;
65275;SDS011;51875;49.994;14.052;2022-10-31T01:22:47;48.13;;;10.50;;
65275;SDS011;51875;49.994;14.052;2022-10-31T01:24:03;45.53;;;10.88;;
65275;SDS011;51875;49.994;14.052;2022-10-31T01:25:19;54.17;;;9.93;;
65275;SDS011;51875;49.994;14.052;2022-10-31T01:26:34;88.28;;;12.18;;
65275;SDS011;51875;49.994;14.052;2022-10-31T01:27:50;59.28;;;11.35;;
65275;SDS011;51875;49.994;14.052;2022-10-31T01:29:07;45.13;;;9.93;;
65275;SDS011;51875;49.994;14.052;2022-10-31T01:30:23;32.35;;;9.93;;
65275;SDS011;51875;49.994;14.052;2022-10-31T01:31:38;49.38;;;10.32;;
65275;SDS011;51875;49.994;14.052;2022-10-31T01:32:54;57.83;;;11.80;;
65275;SDS011;51875;49.994;14.052;2022-10-31T01:34:15;33.33;;;10.15;;
65275;SDS011;51875;49.994;14.052;2022-10-31T01:35:31;43.70;;;10.35;;
65275;SDS011;51875;49.994;14.052;2022-10-31T01:36:47;57.75;;;11.02;;
65275;SDS011;51875;49.994;14.052;2022-10-31T01:38:06;54.40;;;11.25;;
65275;SDS011;51875;49.994;14.052;2022-10-31T01:39:21;42.03;;;10.65;;
65275;SDS011;51875;49.994;14.052;2022-10-31T01:40:37;54.47;;;10.82;;
65275;SDS011;51875;49.994;14.052;2022-10-31T01:41:53;32.53;;;10.88;;
65275;SDS011;51875;49.994;14.052;2022-10-31T01:43:11;19.33;;;10.05;;
65275;SDS011;51875;49.994;14.052;2022-10-31T01:45:44;39.13;;;11.30;;
65275;SDS011;51875;49.994;14.052;2022-10-31T01:47:15;34.05;;;10.60;;
65275;SDS011;51875;49.994;14.052;2022-10-31T01:48:34;56.60;;;10.23;;
65275;SDS011;51875;49.994;14.052;2022-10-31T01:50:00;29.63;;;9.90;;
65275;SDS011;51875;49.994;14.052;2022-10-31T01:51:20;47.33;;;10.95;;
65275;SDS011;51875;49.994;14.052;2022-10-31T01:52:47;35.63;;;10.57;;
65275;SDS011;51875;49.994;14.052;2022-10-31T01:54:06;29.00;;;9.57;;
65275;SDS011;51875;49.994;14.052;2022-10-31T01:55:34;21.00;;;10.45;;
65275;SDS011;51875;49.994;14.052;2022-10-31T01:56:55;24.67;;;10.13;;
65275;SDS011;51875;49.994;14.052;2022-10-31T01:58:17;29.38;;;10.27;;
65275;SDS011;51875;49.994;14.052;2022-10-31T01:59:38;43.10;;;9.55;;
65275;SDS011;51875;49.994;14.052;2022-10-31T02:00:58;37.75;;;9.98;;
65275;SDS011;51875;49.994;14.052;2022-10-31T02:02:16;37.92;;;10.88;;
65275;SDS011;51875;49.994;14.052;2022-10-31T02:03:33;37.97;;;10.07;;
65275;SDS011;51875;49.994;14.052;2022-10-31T02:04:49;26.70;;;9.52;;
65275;SDS011;51875;49.994;14.052;2022-10-31T02:06:06;23.75;;;9.90;;
65275;SDS011;51875;49.994;14.052;2022-10-31T02:07:31;25.00;;;9.52;;
65275;SDS011;51875;49.994;14.052;2022-10-31T02:08:58;29.13;;;8.95;;
65275;SDS011;51875;49.994;14.052;2022-10-31T02:10:15;25.08;;;9.27;;
65275;SDS011;51875;49.994;14.052;2022-10-31T02:11:32;20.48;;;9.07;;
65275;SDS011;51875;49.994;14.052;2022-10-31T02:12:53;15.90;;;9.38;;
65275;SDS011;51875;49.994;14.052;2022-10-31T02:14:12;22.75;;;9.63;;
65275;SDS011;51875;49.994;14.052;2022-10-31T02:15:28;23.55;;;9.32;;
65275;SDS011;51875;49.994;14.052;2022-10-31T02:16:46;20.55;;;9.75;;
65275;SDS011;51875;49.994;14.052;2022-10-31T02:18:01;23.52;;;9.75;;
65275;SDS011;51875;49.994;14.052;2022-10-31T02:19:40;26.48;;;10.68;;
65275;SDS011;51875;49.994;14.052;2022-10-31T02:22:27;32.30;;;9.85;;
65275;SDS011;51875;49.994;14.052;2022-10-31T02:27:34;14.10;;;8.20;;
65275;SDS011;51875;49.994;14.052;2022-10-31T02:32:29;26.63;;;10.07;;
65275;SDS011;51875;49.994;14.052;2022-10-31T02:35:37;27.35;;;9.77;;
65275;SDS011;51875;49.994;14.052;2022-10-31T02:36:59;30.02;;;9.98;;
65275;SDS011;51875;49.994;14.052;2022-10-31T02:40:04;31.55;;;9.55;;
65275;SDS011;51875;49.994;14.052;2022-10-31T02:41:27;29.13;;;9.95;;
65275;SDS011;51875;49.994;14.052;2022-10-31T02:43:14;24.40;;;9.63;;
65275;SDS011;51875;49.994;14.052;2022-10-31T02:45:07;27.85;;;9.30;;
65275;SDS011;51875;49.994;14.052;2022-10-31T02:46:59;26.83;;;8.85;;
65275;SDS011;51875;49.994;14.052;2022-10-31T02:48:20;14.38;;;8.88;;
65275;SDS011;51875;49.994;14.052;2022-10-31T02:51:14;39.58;;;8.95;;
65275;SDS011;51875;49.994;14.052;2022-10-31T02:52:32;29.80;;;8.68;;
65275;SDS011;51875;49.994;14.052;2022-10-31T02:53:48;24.77;;;9.48;;
65275;SDS011;51875;49.994;14.052;2022-10-31T02:55:12;36.75;;;9.50;;
65275;SDS011;51875;49.994;14.052;2022-10-31T02:56:49;28.17;;;9.38;;
65275;SDS011;51875;49.994;14.052;2022-10-31T02:58:14;36.95;;;9.18;;
65275;SDS011;51875;49.994;14.052;2022-10-31T02:59:32;34.55;;;9.00;;
65275;SDS011;51875;49.994;14.052;2022-10-31T03:01:07;32.75;;;9.18;;
65275;SDS011;51875;49.994;14.052;2022-10-31T03:02:47;37.55;;;9.82;;
65275;SDS011;51875;49.994;14.052;2022-10-31T03:04:23;57.20;;;9.70;;
65275;SDS011;51875;49.994;14.052;2022-10-31T03:10:46;28.08;;;9.02;;
65275;SDS011;51875;49.994;14.052;2022-10-31T03:12:14;46.08;;;11.57;;
65275;SDS011;51875;49.994;14.052;2022-10-31T03:13:41;32.80;;;9.35;;
65275;SDS011;51875;49.994;14.052;2022-10-31T03:15:19;36.65;;;9.82;;
65275;SDS011;51875;49.994;14.052;2022-10-31T03:16:47;35.65;;;8.38;;
65275;SDS011;51875;49.994;14.052;2022-10-31T03:18:08;29.48;;;8.88;;
65275;SDS011;51875;49.994;14.052;2022-10-31T03:19:35;31.90;;;9.55;;
65275;SDS011;51875;49.994;14.052;2022-10-31T03:22:21;34.53;;;9.30;;
65275;SDS011;51875;49.994;14.052;2022-10-31T03:23:39;33.35;;;9.23;;
65275;SDS011;51875;49.994;14.052;2022-10-31T03:24:57;22.77;;;8.30;;
65275;SDS011;51875;49.994;14.052;2022-10-31T03:26:13;38.90;;;9.32;;
65275;SDS011;51875;49.994;14.052;2022-10-31T03:27:32;40.22;;;11.27;;
65275;SDS011;51875;49.994;14.052;2022-10-31T03:28:53;32.42;;;8.82;;
65275;SDS011;51875;49.994;14.052;2022-10-31T03:30:12;21.13;;;8.75;;
65275;SDS011;51875;49.994;14.052;2022-10-31T03:31:30;24.45;;;8.75;;
65275;SDS011;51875;49.994;14.052;2022-10-31T03:32:55;23.35;;;8.85;;
65275;SDS011;51875;49.994;14.052;2022-10-31T03:34:14;29.80;;;8.23;;
65275;SDS011;51875;49.994;14.052;2022-10-31T03:35:33;31.52;;;8.80;;
65275;SDS011;51875;49.994;14.052;2022-10-31T03:36:52;31.98;;;8.93;;
65275;SDS011;51875;49.994;14.052;2022-10-31T03:38:11;27.52;;;9.63;;
65275;SDS011;51875;49.994;14.052;2022-10-31T03:39:27;20.27;;;8.77;;
65275;SDS011;51875;49.994;14.052;2022-10-31T03:40:44;31.42;;;8.63;;
65275;SDS011;51875;49.994;14.052;2022-10-31T03:42:23;21.35;;;8.88;;
65275;SDS011;51875;49.994;14.052;2022-10-31T03:43:41;22.90;;;8.43;;
65275;SDS011;51875;49.994;14.052;2022-10-31T03:45:43;16.42;;;8.23;;
65275;SDS011;51875;49.994;14.052;2022-10-31T03:46:41;26.55;;;8.05;;
65275;SDS011;51875;49.994;14.052;2022-10-31T03:47:58;21.92;;;8.32;;
65275;SDS011;51875;49.994;14.052;2022-10-31T03:49:14;23.23;;;8.18;;
65275;SDS011;51875;49.994;14.052;2022-10-31T03:50:35;19.63;;;7.80;;
65275;SDS011;51875;49.994;14.052;2022-10-31T03:53:22;16.65;;;8.25;;
65275;SDS011;51875;49.994;14.052;2022-10-31T03:54:45;14.40;;;7.60;;
65275;SDS011;51875;49.994;14.052;2022-10-31T03:56:11;20.45;;;7.80;;
65275;SDS011;51875;49.994;14.052;2022-10-31T03:57:35;18.83;;;7.57;;
65275;SDS011;51875;49.994;14.052;2022-10-31T04:00:17;15.80;;;6.75;;
65275;SDS011;51875;49.994;14.052;2022-10-31T04:01:34;12.73;;;7.57;;
65275;SDS011;51875;49.994;14.052;2022-10-31T04:04:21;15.43;;;7.68;;
65275;SDS011;51875;49.994;14.052;2022-10-31T04:05:37;11.40;;;7.20;;
65275;SDS011;51875;49.994;14.052;2022-10-31T04:06:53;12.30;;;7.75;;
65275;SDS011;51875;49.994;14.052;2022-10-31T04:08:13;19.35;;;7.70;;
65275;SDS011;51875;49.994;14.052;2022-10-31T04:09:33;28.52;;;8.05;;
65275;SDS011;51875;49.994;14.052;2022-10-31T04:10:51;42.35;;;7.70;;
65275;SDS011;51875;49.994;14.052;2022-10-31T04:12:09;57.85;;;8.93;;
65275;SDS011;51875;49.994;14.052;2022-10-31T04:13:30;84.10;;;9.32;;
65275;SDS011;51875;49.994;14.052;2022-10-31T04:14:49;137.55;;;14.55;;
65275;SDS011;51875;49.994;14.052;2022-10-31T04:16:05;152.82;;;13.07;;
65275;SDS011;51875;49.994;14.052;2022-10-31T04:17:22;169.85;;;15.02;;
65275;SDS011;51875;49.994;14.052;2022-10-31T04:18:42;81.50;;;12.30;;
65275;SDS011;51875;49.994;14.052;2022-10-31T04:20:01;104.20;;;11.10;;
65275;SDS011;51875;49.994;14.052;2022-10-31T04:21:17;63.95;;;11.60;;
65275;SDS011;51875;49.994;14.052;2022-10-31T04:22:33;80.60;;;11.35;;
65275;SDS011;51875;49.994;14.052;2022-10-31T04:23:48;42.13;;;10.98;;
65275;SDS011;51875;49.994;14.052;2022-10-31T04:25:04;34.05;;;12.02;;
65275;SDS011;51875;49.994;14.052;2022-10-31T04:26:20;24.73;;;10.20;;
65275;SDS011;51875;49.994;14.052;2022-10-31T04:27:36;63.85;;;14.73;;
65275;SDS011;51875;49.994;14.052;2022-10-31T04:28:51;66.18;;;11.40;;
65275;SDS011;51875;49.994;14.052;2022-10-31T04:30:07;41.88;;;12.50;;
65275;SDS011;51875;49.994;14.052;2022-10-31T04:31:23;57.88;;;13.52;;
65275;SDS011;51875;49.994;14.052;2022-10-31T04:32:38;58.80;;;11.63;;
65275;SDS011;51875;49.994;14.052;2022-10-31T04:33:54;66.05;;;11.18;;
65275;SDS011;51875;49.994;14.052;2022-10-31T04:35:10;84.47;;;12.60;;
65275;SDS011;51875;49.994;14.052;2022-10-31T04:36:25;57.90;;;10.38;;
65275;SDS011;51875;49.994;14.052;2022-10-31T04:37:41;21.90;;;9.27;;
65275;SDS011;51875;49.994;14.052;2022-10-31T04:38:56;32.22;;;10.48;;
65275;SDS011;51875;49.994;14.052;2022-10-31T04:40:12;31.00;;;11.80;;
65275;SDS011;51875;49.994;14.052;2022-10-31T04:41:27;29.98;;;10.02;;
65275;SDS011;51875;49.994;14.052;2022-10-31T04:42:43;45.20;;;11.95;;
65275;SDS011;51875;49.994;14.052;2022-10-31T04:43:58;51.65;;;12.07;;
65275;SDS011;51875;49.994;14.052;2022-10-31T04:45:14;36.97;;;10.93;;
65275;SDS011;51875;49.994;14.052;2022-10-31T04:46:30;46.88;;;12.63;;
65275;SDS011;51875;49.994;14.052;2022-10-31T04:47:46;38.28;;;11.90;;
65275;SDS011;51875;49.994;14.052;2022-10-31T04:49:01;25.23;;;11.43;;
65275;SDS011;51875;49.994;14.052;2022-10-31T04:50:17;57.85;;;12.95;;
65275;SDS011;51875;49.994;14.052;2022-10-31T04:51:33;30.80;;;11.52;;
65275;SDS011;51875;49.994;14.052;2022-10-31T04:52:49;32.35;;;11.30;;
65275;SDS011;51875;49.994;14.052;2022-10-31T04:54:04;29.75;;;11.88;;
65275;SDS011;51875;49.994;14.052;2022-10-31T04:55:20;30.38;;;11.18;;
65275;SDS011;51875;49.994;14.052;2022-10-31T04:56:35;31.15;;;11.45;;
65275;SDS011;51875;49.994;14.052;2022-10-31T04:57:51;34.72;;;11.82;;
65275;SDS011;51875;49.994;14.052;2022-10-31T04:59:06;27.20;;;11.50;;
65275;SDS011;51875;49.994;14.052;2022-10-31T05:00:22;46.63;;;12.40;;
65275;SDS011;51875;49.994;14.052;2022-10-31T05:01:38;27.70;;;11.35;;
65275;SDS011;51875;49.994;14.052;2022-10-31T05:02:54;31.38;;;11.85;;
65275;SDS011;51875;49.994;14.052;2022-10-31T05:04:11;24.40;;;11.40;;
65275;SDS011;51875;49.994;14.052;2022-10-31T05:05:28;24.25;;;11.65;;
65275;SDS011;51875;49.994;14.052;2022-10-31T05:06:45;28.67;;;10.68;;
65275;SDS011;51875;49.994;14.052;2022-10-31T05:08:00;28.35;;;10.85;;
65275;SDS011;51875;49.994;14.052;2022-10-31T05:09:16;23.85;;;10.50;;
65275;SDS011;51875;49.994;14.052;2022-10-31T05:10:32;21.77;;;11.18;;
65275;SDS011;51875;49.994;14.052;2022-10-31T05:11:47;19.33;;;10.60;;
65275;SDS011;51875;49.994;14.052;2022-10-31T05:13:03;24.73;;;11.40;;
65275;SDS011;51875;49.994;14.052;2022-10-31T05:14:19;33.33;;;13.13;;
65275;SDS011;51875;49.994;14.052;2022-10-31T05:15:35;28.10;;;11.20;;
65275;SDS011;51875;49.994;14.052;2022-10-31T05:16:50;19.88;;;11.10;;
65275;SDS011;51875;49.994;14.052;2022-10-31T05:18:06;23.88;;;11.98;;
65275;SDS011;51875;49.994;14.052;2022-10-31T05:19:21;19.55;;;10.07;;
65275;SDS011;51875;49.994;14.052;2022-10-31T05:20:37;23.23;;;11.13;;
65275;SDS011;51875;49.994;14.052;2022-10-31T05:21:52;22.90;;;11.73;;
65275;SDS011;51875;49.994;14.052;2022-10-31T05:23:08;23.73;;;11.10;;
65275;SDS011;51875;49.994;14.052;2022-10-31T05:24:24;24.90;;;10.90;;
65275;SDS011;51875;49.994;14.052;2022-10-31T05:25:40;44.75;;;11.35;;
65275;SDS011;51875;49.994;14.052;2022-10-31T05:26:56;33.05;;;10.82;;
65275;SDS011;51875;49.994;14.052;2022-10-31T05:28:11;31.10;;;11.23;;
65275;SDS011;51875;49.994;14.052;2022-10-31T05:29:27;17.65;;;10.50;;
65275;SDS011;51875;49.994;14.052;2022-10-31T05:30:42;34.72;;;10.68;;
65275;SDS011;51875;49.994;14.052;2022-10-31T05:31:58;72.60;;;12.63;;
65275;SDS011;51875;49.994;14.052;2022-10-31T05:33:14;78.63;;;14.10;;
65275;SDS011;51875;49.994;14.052;2022-10-31T05:34:30;58.47;;;11.55;;
65275;SDS011;51875;49.994;14.052;2022-10-31T05:35:46;59.30;;;11.02;;
65275;SDS011;51875;49.994;14.052;2022-10-31T05:37:01;99.32;;;13.55;;
65275;SDS011;51875;49.994;14.052;2022-10-31T05:38:16;82.97;;;13.05;;
65275;SDS011;51875;49.994;14.052;2022-10-31T05:39:32;26.17;;;9.52;;
65275;SDS011;51875;49.994;14.052;2022-10-31T05:40:48;67.40;;;10.77;;
65275;SDS011;51875;49.994;14.052;2022-10-31T05:42:03;85.45;;;11.60;;
65275;SDS011;51875;49.994;14.052;2022-10-31T05:43:19;84.00;;;11.43;;
65275;SDS011;51875;49.994;14.052;2022-10-31T05:44:34;55.72;;;9.80;;
65275;SDS011;51875;49.994;14.052;2022-10-31T05:45:53;75.20;;;10.48;;
65275;SDS011;51875;49.994;14.052;2022-10-31T05:47:09;66.93;;;11.63;;
65275;SDS011;51875;49.994;14.052;2022-10-31T05:48:26;44.65;;;10.00;;
65275;SDS011;51875;49.994;14.052;2022-10-31T05:49:42;50.33;;;10.38;;
65275;SDS011;51875;49.994;14.052;2022-10-31T05:50:58;114.38;;;13.25;;
65275;SDS011;51875;49.994;14.052;2022-10-31T05:52:15;67.78;;;9.98;;
65275;SDS011;51875;49.994;14.052;2022-10-31T05:53:32;46.92;;;10.88;;
65275;SDS011;51875;49.994;14.052;2022-10-31T05:54:50;57.10;;;10.57;;
65275;SDS011;51875;49.994;14.052;2022-10-31T05:56:06;46.40;;;9.85;;
65275;SDS011;51875;49.994;14.052;2022-10-31T05:57:21;78.00;;;11.10;;
65275;SDS011;51875;49.994;14.052;2022-10-31T05:58:37;32.05;;;9.43;;
65275;SDS011;51875;49.994;14.052;2022-10-31T05:59:52;42.55;;;8.90;;
65275;SDS011;51875;49.994;14.052;2022-10-31T06:01:08;70.25;;;10.55;;
65275;SDS011;51875;49.994;14.052;2022-10-31T06:02:24;17.40;;;8.57;;
65275;SDS011;51875;49.994;14.052;2022-10-31T06:03:40;24.48;;;8.02;;
65275;SDS011;51875;49.994;14.052;2022-10-31T06:04:55;15.55;;;7.60;;
65275;SDS011;51875;49.994;14.052;2022-10-31T06:06:11;15.50;;;8.27;;
65275;SDS011;51875;49.994;14.052;2022-10-31T06:07:26;14.70;;;8.80;;
65275;SDS011;51875;49.994;14.052;2022-10-31T06:08:42;20.63;;;9.15;;
65275;SDS011;51875;49.994;14.052;2022-10-31T06:09:58;16.90;;;8.93;;
65275;SDS011;51875;49.994;14.052;2022-10-31T06:11:14;16.73;;;8.77;;
65275;SDS011;51875;49.994;14.052;2022-10-31T06:12:29;16.85;;;9.55;;
65275;SDS011;51875;49.994;14.052;2022-10-31T06:13:45;22.63;;;9.48;;
65275;SDS011;51875;49.994;14.052;2022-10-31T06:15:00;29.02;;;10.80;;
65275;SDS011;51875;49.994;14.052;2022-10-31T06:16:16;21.23;;;9.75;;
65275;SDS011;51875;49.994;14.052;2022-10-31T06:17:32;24.90;;;9.63;;
65275;SDS011;51875;49.994;14.052;2022-10-31T06:18:48;34.53;;;10.65;;
65275;SDS011;51875;49.994;14.052;2022-10-31T06:20:05;31.05;;;11.05;;
65275;SDS011;51875;49.994;14.052;2022-10-31T06:21:21;21.38;;;10.63;;
65275;SDS011;51875;49.994;14.052;2022-10-31T06:22:37;21.73;;;10.93;;
65275;SDS011;51875;49.994;14.052;2022-10-31T06:23:52;22.33;;;11.07;;
65275;SDS011;51875;49.994;14.052;2022-10-31T06:25:08;26.23;;;10.85;;
65275;SDS011;51875;49.994;14.052;2022-10-31T06:26:24;21.52;;;10.48;;
65275;SDS011;51875;49.994;14.052;2022-10-31T06:27:39;22.65;;;10.90;;
65275;SDS011;51875;49.994;14.052;2022-10-31T06:28:55;19.75;;;10.98;;
65275;SDS011;51875;49.994;14.052;2022-10-31T06:30:10;22.48;;;10.55;;
65275;SDS011;51875;49.994;14.052;2022-10-31T06:31:26;20.27;;;10.07;;
65275;SDS011;51875;49.994;14.052;2022-10-31T06:32:42;18.85;;;10.52;;
65275;SDS011;51875;49.994;14.052;2022-10-31T06:33:57;21.83;;;10.23;;
65275;SDS011;51875;49.994;14.052;2022-10-31T06:35:13;17.40;;;9.23;;
65275;SDS011;51875;49.994;14.052;2022-10-31T06:36:29;16.67;;;9.18;;
65275;SDS011;51875;49.994;14.052;2022-10-31T06:37:53;20.75;;;9.45;;
65275;SDS011;51875;49.994;14.052;2022-10-31T06:39:09;23.00;;;10.10;;
65275;SDS011;51875;49.994;14.052;2022-10-31T06:40:24;18.85;;;10.60;;
65275;SDS011;51875;49.994;14.052;2022-10-31T06:41:40;22.60;;;10.82;;
65275;SDS011;51875;49.994;14.052;2022-10-31T06:42:57;19.67;;;10.15;;
65275;SDS011;51875;49.994;14.052;2022-10-31T06:44:15;25.63;;;10.23;;
65275;SDS011;51875;49.994;14.052;2022-10-31T06:45:31;20.25;;;10.23;;
65275;SDS011;51875;49.994;14.052;2022-10-31T06:46:47;27.83;;;11.13;;
65275;SDS011;51875;49.994;14.052;2022-10-31T06:48:02;21.05;;;10.93;;
65275;SDS011;51875;49.994;14.052;2022-10-31T06:49:18;21.95;;;10.48;;
65275;SDS011;51875;49.994;14.052;2022-10-31T06:50:34;25.48;;;9.63;;
65275;SDS011;51875;49.994;14.052;2022-10-31T06:51:50;25.73;;;9.32;;
65275;SDS011;51875;49.994;14.052;2022-10-31T06:53:07;23.25;;;9.48;;
65275;SDS011;51875;49.994;14.052;2022-10-31T06:54:25;25.08;;;9.38;;
65275;SDS011;51875;49.994;14.052;2022-10-31T06:55:41;31.17;;;9.75;;
65275;SDS011;51875;49.994;14.052;2022-10-31T06:56:57;16.73;;;9.68;;
65275;SDS011;51875;49.994;14.052;2022-10-31T06:58:13;17.23;;;8.30;;
65275;SDS011;51875;49.994;14.052;2022-10-31T06:59:28;18.70;;;9.43;;
65275;SDS011;51875;49.994;14.052;2022-10-31T07:00:44;15.82;;;8.73;;
65275;SDS011;51875;49.994;14.052;2022-10-31T07:01:59;17.13;;;8.95;;
65275;SDS011;51875;49.994;14.052;2022-10-31T07:03:15;18.13;;;9.55;;
65275;SDS011;51875;49.994;14.052;2022-10-31T07:04:31;18.42;;;9.25;;
65275;SDS011;51875;49.994;14.052;2022-10-31T07:05:46;28.73;;;8.98;;
65275;SDS011;51875;49.994;14.052;2022-10-31T07:07:02;24.98;;;8.48;;
65275;SDS011;51875;49.994;14.052;2022-10-31T07:08:18;17.15;;;9.38;;
65275;SDS011;51875;49.994;14.052;2022-10-31T07:09:33;15.32;;;8.82;;
65275;SDS011;51875;49.994;14.052;2022-10-31T07:10:53;13.70;;;8.65;;
65275;SDS011;51875;49.994;14.052;2022-10-31T07:12:10;35.45;;;9.95;;
65275;SDS011;51875;49.994;14.052;2022-10-31T07:13:25;29.90;;;9.60;;
65275;SDS011;51875;49.994;14.052;2022-10-31T07:14:41;23.10;;;9.45;;
65275;SDS011;51875;49.994;14.052;2022-10-31T07:16:00;37.33;;;10.23;;
65275;SDS011;51875;49.994;14.052;2022-10-31T07:17:18;39.65;;;9.52;;
65275;SDS011;51875;49.994;14.052;2022-10-31T07:18:33;15.27;;;8.68;;
65275;SDS011;51875;49.994;14.052;2022-10-31T07:19:49;22.67;;;8.73;;
65275;SDS011;51875;49.994;14.052;2022-10-31T07:21:05;34.92;;;9.85;;
65275;SDS011;51875;49.994;14.052;2022-10-31T07:22:21;33.78;;;9.90;;
65275;SDS011;51875;49.994;14.052;2022-10-31T07:23:36;28.05;;;8.52;;
65275;SDS011;51875;49.994;14.052;2022-10-31T07:24:52;33.05;;;9.57;;
65275;SDS011;51875;49.994;14.052;2022-10-31T07:26:07;18.67;;;8.65;;
65275;SDS011;51875;49.994;14.052;2022-10-31T07:27:25;39.78;;;9.57;;
65275;SDS011;51875;49.994;14.052;2022-10-31T07:28:40;68.47;;;11.75;;
65275;SDS011;51875;49.994;14.052;2022-10-31T07:29:56;90.85;;;10.32;;
65275;SDS011;51875;49.994;14.052;2022-10-31T07:31:11;57.90;;;9.60;;
65275;SDS011;51875;49.994;14.052;2022-10-31T07:32:27;15.73;;;9.10;;
65275;SDS011;51875;49.994;14.052;2022-10-31T07:33:43;34.08;;;10.30;;
65275;SDS011;51875;49.994;14.052;2022-10-31T07:34:58;56.25;;;10.55;;
65275;SDS011;51875;49.994;14.052;2022-10-31T07:36:14;48.70;;;9.10;;
65275;SDS011;51875;49.994;14.052;2022-10-31T07:37:30;63.08;;;10.02;;
65275;SDS011;51875;49.994;14.052;2022-10-31T07:38:45;125.43;;;12.88;;
65275;SDS011;51875;49.994;14.052;2022-10-31T07:40:01;30.70;;;9.38;;
65275;SDS011;51875;49.994;14.052;2022-10-31T07:41:18;76.80;;;11.10;;
65275;SDS011;51875;49.994;14.052;2022-10-31T07:42:34;68.22;;;10.77;;
65275;SDS011;51875;49.994;14.052;2022-10-31T07:43:54;137.90;;;13.63;;
65275;SDS011;51875;49.994;14.052;2022-10-31T07:45:10;58.55;;;10.20;;
65275;SDS011;51875;49.994;14.052;2022-10-31T07:46:27;44.83;;;10.05;;
65275;SDS011;51875;49.994;14.052;2022-10-31T07:47:47;32.58;;;10.20;;
65275;SDS011;51875;49.994;14.052;2022-10-31T07:49:06;54.13;;;11.35;;
65275;SDS011;51875;49.994;14.052;2022-10-31T07:50:23;75.43;;;10.52;;
65275;SDS011;51875;49.994;14.052;2022-10-31T07:51:40;38.30;;;9.07;;
65275;SDS011;51875;49.994;14.052;2022-10-31T07:53:03;61.83;;;10.07;;
65275;SDS011;51875;49.994;14.052;2022-10-31T07:54:22;84.72;;;11.73;;
65275;SDS011;51875;49.994;14.052;2022-10-31T07:55:38;67.38;;;9.52;;
65275;SDS011;51875;49.994;14.052;2022-10-31T07:56:54;78.85;;;10.52;;